sensor_id;sensor_type;location;lat;lon;timestamp;P1;durP1;ratioP1;P2;durP2;ratioP2
37781;SDS011;23621;50.878;4.584;2023-07-02T00:00:07;25.13;;;13.70;;
37781;SDS011;23621;50.878;4.584;2023-07-02T00:02:55;20.08;;;13.80;;
37781;SDS011;23621;50.878;4.584;2023-07-02T00:05:44;25.27;;;14.50;;
37781;SDS011;23621;50.878;4.584;2023-07-02T00:08:31;21.88;;;13.48;;
37781;SDS011;23621;50.878;4.584;2023-07-02T00:11:18;20.83;;;13.15;;
37781;SDS011;23621;50.878;4.584;2023-07-02T00:14:06;26.10;;;14.35;;
37781;SDS011;23621;50.878;4.584;2023-07-02T00:16:54;24.00;;;13.20;;
37781;SDS011;23621;50.878;4.584;2023-07-02T00:19:41;25.23;;;14.18;;
37781;SDS011;23621;50.878;4.584;2023-07-02T00:22:29;23.30;;;14.27;;
37781;SDS011;23621;50.878;4.584;2023-07-02T00:25:17;22.80;;;14.45;;
37781;SDS011;23621;50.878;4.584;2023-07-02T00:28:05;27.95;;;15.65;;
37781;SDS011;23621;50.878;4.584;2023-07-02T00:30:52;23.02;;;14.40;;
37781;SDS011;23621;50.878;4.584;2023-07-02T00:33:39;20.73;;;14.38;;
37781;SDS011;23621;50.878;4.584;2023-07-02T00:36:27;26.17;;;15.55;;
37781;SDS011;23621;50.878;4.584;2023-07-02T00:39:15;21.95;;;15.18;;
37781;SDS011;23621;50.878;4.584;2023-07-02T00:42:04;22.35;;;15.38;;
37781;SDS011;23621;50.878;4.584;2023-07-02T00:44:51;26.67;;;15.82;;
37781;SDS011;23621;50.878;4.584;2023-07-02T00:47:39;21.75;;;15.15;;
37781;SDS011;23621;50.878;4.584;2023-07-02T00:50:26;26.15;;;15.68;;
37781;SDS011;23621;50.878;4.584;2023-07-02T00:53:13;26.60;;;15.73;;
37781;SDS011;23621;50.878;4.584;2023-07-02T00:56:01;26.50;;;15.63;;
37781;SDS011;23621;50.878;4.584;2023-07-02T00:58:49;24.73;;;15.18;;
37781;SDS011;23621;50.878;4.584;2023-07-02T01:01:38;25.48;;;16.15;;
37781;SDS011;23621;50.878;4.584;2023-07-02T01:04:26;26.98;;;16.45;;
37781;SDS011;23621;50.878;4.584;2023-07-02T01:07:14;25.80;;;16.27;;
37781;SDS011;23621;50.878;4.584;2023-07-02T01:10:01;28.38;;;17.20;;
37781;SDS011;23621;50.878;4.584;2023-07-02T01:12:49;28.20;;;16.10;;
37781;SDS011;23621;50.878;4.584;2023-07-02T01:15:37;30.08;;;17.02;;
37781;SDS011;23621;50.878;4.584;2023-07-02T01:18:25;26.48;;;16.67;;
37781;SDS011;23621;50.878;4.584;2023-07-02T01:21:13;29.48;;;16.77;;
37781;SDS011;23621;50.878;4.584;2023-07-02T01:24:01;33.42;;;17.35;;
37781;SDS011;23621;50.878;4.584;2023-07-02T01:26:49;25.77;;;16.77;;
37781;SDS011;23621;50.878;4.584;2023-07-02T01:29:37;28.98;;;16.75;;
37781;SDS011;23621;50.878;4.584;2023-07-02T01:32:24;29.50;;;17.98;;
37781;SDS011;23621;50.878;4.584;2023-07-02T01:35:11;27.45;;;18.05;;
37781;SDS011;23621;50.878;4.584;2023-07-02T01:37:58;30.83;;;17.27;;
37781;SDS011;23621;50.878;4.584;2023-07-02T01:40:46;29.08;;;18.45;;
37781;SDS011;23621;50.878;4.584;2023-07-02T01:43:33;29.30;;;17.83;;
37781;SDS011;23621;50.878;4.584;2023-07-02T01:46:21;28.60;;;17.13;;
37781;SDS011;23621;50.878;4.584;2023-07-02T01:49:08;26.55;;;17.10;;
37781;SDS011;23621;50.878;4.584;2023-07-02T01:51:55;30.60;;;17.58;;
37781;SDS011;23621;50.878;4.584;2023-07-02T01:54:43;27.40;;;17.13;;
37781;SDS011;23621;50.878;4.584;2023-07-02T01:57:31;29.60;;;17.98;;
37781;SDS011;23621;50.878;4.584;2023-07-02T02:00:19;31.10;;;18.15;;
37781;SDS011;23621;50.878;4.584;2023-07-02T02:03:06;33.85;;;18.70;;
37781;SDS011;23621;50.878;4.584;2023-07-02T02:05:53;31.23;;;18.63;;
37781;SDS011;23621;50.878;4.584;2023-07-02T02:08:40;35.35;;;18.58;;
37781;SDS011;23621;50.878;4.584;2023-07-02T02:11:27;27.85;;;18.50;;
37781;SDS011;23621;50.878;4.584;2023-07-02T02:14:15;30.98;;;18.75;;
37781;SDS011;23621;50.878;4.584;2023-07-02T02:17:03;30.83;;;17.50;;
37781;SDS011;23621;50.878;4.584;2023-07-02T02:19:50;31.40;;;18.45;;
37781;SDS011;23621;50.878;4.584;2023-07-02T02:22:37;34.28;;;18.40;;
37781;SDS011;23621;50.878;4.584;2023-07-02T02:25:24;34.28;;;19.35;;
37781;SDS011;23621;50.878;4.584;2023-07-02T02:28:11;29.98;;;18.60;;
37781;SDS011;23621;50.878;4.584;2023-07-02T02:30:59;33.28;;;19.15;;
37781;SDS011;23621;50.878;4.584;2023-07-02T02:33:46;30.60;;;17.73;;
37781;SDS011;23621;50.878;4.584;2023-07-02T02:36:33;36.78;;;19.00;;
37781;SDS011;23621;50.878;4.584;2023-07-02T02:39:20;31.17;;;18.75;;
37781;SDS011;23621;50.878;4.584;2023-07-02T02:42:07;34.15;;;20.10;;
37781;SDS011;23621;50.878;4.584;2023-07-02T02:44:55;36.63;;;20.30;;
37781;SDS011;23621;50.878;4.584;2023-07-02T02:47:42;32.58;;;19.38;;
37781;SDS011;23621;50.878;4.584;2023-07-02T02:50:29;31.92;;;20.38;;
37781;SDS011;23621;50.878;4.584;2023-07-02T02:53:16;33.17;;;19.63;;
37781;SDS011;23621;50.878;4.584;2023-07-02T02:56:04;34.33;;;19.40;;
37781;SDS011;23621;50.878;4.584;2023-07-02T02:58:51;31.98;;;19.98;;
37781;SDS011;23621;50.878;4.584;2023-07-02T03:01:38;35.70;;;19.77;;
37781;SDS011;23621;50.878;4.584;2023-07-02T03:04:25;38.63;;;20.25;;
37781;SDS011;23621;50.878;4.584;2023-07-02T03:07:13;35.28;;;20.48;;
37781;SDS011;23621;50.878;4.584;2023-07-02T03:10:00;31.25;;;19.35;;
37781;SDS011;23621;50.878;4.584;2023-07-02T03:12:48;41.20;;;21.08;;
37781;SDS011;23621;50.878;4.584;2023-07-02T03:15:35;36.90;;;20.55;;
37781;SDS011;23621;50.878;4.584;2023-07-02T03:18:22;34.95;;;20.55;;
37781;SDS011;23621;50.878;4.584;2023-07-02T03:21:09;34.35;;;19.38;;
37781;SDS011;23621;50.878;4.584;2023-07-02T03:23:56;35.05;;;20.58;;
37781;SDS011;23621;50.878;4.584;2023-07-02T03:26:44;37.08;;;21.05;;
37781;SDS011;23621;50.878;4.584;2023-07-02T03:29:31;35.92;;;19.58;;
37781;SDS011;23621;50.878;4.584;2023-07-02T03:32:20;37.35;;;20.40;;
37781;SDS011;23621;50.878;4.584;2023-07-02T03:35:07;33.78;;;21.05;;
37781;SDS011;23621;50.878;4.584;2023-07-02T03:37:55;45.35;;;21.48;;
37781;SDS011;23621;50.878;4.584;2023-07-02T03:40:44;42.13;;;22.67;;
37781;SDS011;23621;50.878;4.584;2023-07-02T03:43:31;37.40;;;22.15;;
37781;SDS011;23621;50.878;4.584;2023-07-02T03:46:19;38.63;;;21.77;;
37781;SDS011;23621;50.878;4.584;2023-07-02T03:49:06;34.95;;;20.30;;
37781;SDS011;23621;50.878;4.584;2023-07-02T03:51:53;37.65;;;20.45;;
37781;SDS011;23621;50.878;4.584;2023-07-02T03:54:41;35.92;;;20.05;;
37781;SDS011;23621;50.878;4.584;2023-07-02T03:57:28;34.10;;;20.52;;
37781;SDS011;23621;50.878;4.584;2023-07-02T04:00:15;40.63;;;21.63;;
37781;SDS011;23621;50.878;4.584;2023-07-02T04:03:03;43.42;;;21.67;;
37781;SDS011;23621;50.878;4.584;2023-07-02T04:05:50;42.08;;;22.52;;
37781;SDS011;23621;50.878;4.584;2023-07-02T04:08:37;39.13;;;21.90;;
37781;SDS011;23621;50.878;4.584;2023-07-02T04:11:25;42.53;;;21.83;;
37781;SDS011;23621;50.878;4.584;2023-07-02T04:14:12;41.00;;;21.52;;
37781;SDS011;23621;50.878;4.584;2023-07-02T04:17:01;36.45;;;21.88;;
37781;SDS011;23621;50.878;4.584;2023-07-02T04:19:53;43.47;;;22.17;;
37781;SDS011;23621;50.878;4.584;2023-07-02T04:22:41;40.30;;;21.55;;
37781;SDS011;23621;50.878;4.584;2023-07-02T04:25:28;38.05;;;21.58;;
37781;SDS011;23621;50.878;4.584;2023-07-02T04:28:35;37.22;;;21.65;;
37781;SDS011;23621;50.878;4.584;2023-07-02T04:31:23;36.50;;;21.65;;
37781;SDS011;23621;50.878;4.584;2023-07-02T04:34:10;38.22;;;21.95;;
37781;SDS011;23621;50.878;4.584;2023-07-02T04:36:57;45.50;;;22.35;;
37781;SDS011;23621;50.878;4.584;2023-07-02T04:39:44;47.10;;;22.88;;
37781;SDS011;23621;50.878;4.584;2023-07-02T04:42:31;40.60;;;21.98;;
37781;SDS011;23621;50.878;4.584;2023-07-02T04:45:27;41.60;;;22.90;;
37781;SDS011;23621;50.878;4.584;2023-07-02T04:48:18;40.75;;;22.08;;
37781;SDS011;23621;50.878;4.584;2023-07-02T04:51:05;50.05;;;23.67;;
37781;SDS011;23621;50.878;4.584;2023-07-02T04:53:53;41.97;;;22.15;;
37781;SDS011;23621;50.878;4.584;2023-07-02T04:56:40;40.88;;;23.20;;
37781;SDS011;23621;50.878;4.584;2023-07-02T04:59:27;39.42;;;22.65;;
37781;SDS011;23621;50.878;4.584;2023-07-02T05:02:14;42.65;;;22.88;;
37781;SDS011;23621;50.878;4.584;2023-07-02T05:05:01;39.60;;;23.45;;
37781;SDS011;23621;50.878;4.584;2023-07-02T05:07:49;44.35;;;23.25;;
37781;SDS011;23621;50.878;4.584;2023-07-02T05:10:36;51.17;;;24.17;;
37781;SDS011;23621;50.878;4.584;2023-07-02T05:13:23;38.85;;;22.67;;
37781;SDS011;23621;50.878;4.584;2023-07-02T05:16:12;45.90;;;24.35;;
37781;SDS011;23621;50.878;4.584;2023-07-02T05:19:00;46.33;;;23.33;;
37781;SDS011;23621;50.878;4.584;2023-07-02T05:21:47;40.55;;;22.33;;
37781;SDS011;23621;50.878;4.584;2023-07-02T05:24:37;45.45;;;22.80;;
37781;SDS011;23621;50.878;4.584;2023-07-02T05:27:27;40.83;;;22.80;;
37781;SDS011;23621;50.878;4.584;2023-07-02T05:30:14;42.08;;;22.92;;
37781;SDS011;23621;50.878;4.584;2023-07-02T05:33:01;43.42;;;24.25;;
37781;SDS011;23621;50.878;4.584;2023-07-02T05:35:49;46.08;;;22.92;;
37781;SDS011;23621;50.878;4.584;2023-07-02T05:38:36;38.50;;;23.30;;
37781;SDS011;23621;50.878;4.584;2023-07-02T05:41:23;45.88;;;23.38;;
37781;SDS011;23621;50.878;4.584;2023-07-02T05:44:11;48.25;;;23.52;;
37781;SDS011;23621;50.878;4.584;2023-07-02T05:46:58;40.55;;;22.42;;
37781;SDS011;23621;50.878;4.584;2023-07-02T05:49:45;41.63;;;23.27;;
37781;SDS011;23621;50.878;4.584;2023-07-02T05:52:33;41.47;;;23.10;;
37781;SDS011;23621;50.878;4.584;2023-07-02T05:55:20;49.25;;;24.05;;
37781;SDS011;23621;50.878;4.584;2023-07-02T05:58:07;41.20;;;22.75;;
37781;SDS011;23621;50.878;4.584;2023-07-02T06:00:55;37.70;;;22.52;;
37781;SDS011;23621;50.878;4.584;2023-07-02T06:03:42;45.40;;;22.98;;
37781;SDS011;23621;50.878;4.584;2023-07-02T06:06:32;41.25;;;22.67;;
37781;SDS011;23621;50.878;4.584;2023-07-02T06:09:19;37.60;;;21.88;;
37781;SDS011;23621;50.878;4.584;2023-07-02T06:12:07;42.60;;;22.30;;
37781;SDS011;23621;50.878;4.584;2023-07-02T06:14:54;35.53;;;22.00;;
37781;SDS011;23621;50.878;4.584;2023-07-02T06:17:42;40.83;;;21.75;;
37781;SDS011;23621;50.878;4.584;2023-07-02T06:20:29;37.92;;;22.05;;
37781;SDS011;23621;50.878;4.584;2023-07-02T06:23:16;37.97;;;21.23;;
37781;SDS011;23621;50.878;4.584;2023-07-02T06:26:03;39.42;;;21.42;;
37781;SDS011;23621;50.878;4.584;2023-07-02T06:28:51;36.17;;;21.67;;
37781;SDS011;23621;50.878;4.584;2023-07-02T06:31:38;39.58;;;21.63;;
37781;SDS011;23621;50.878;4.584;2023-07-02T06:34:25;38.85;;;21.27;;
37781;SDS011;23621;50.878;4.584;2023-07-02T06:37:12;39.70;;;21.17;;
37781;SDS011;23621;50.878;4.584;2023-07-02T06:39:59;40.53;;;20.95;;
37781;SDS011;23621;50.878;4.584;2023-07-02T06:42:47;38.88;;;20.48;;
37781;SDS011;23621;50.878;4.584;2023-07-02T06:45:34;33.65;;;19.98;;
37781;SDS011;23621;50.878;4.584;2023-07-02T06:48:21;32.58;;;19.52;;
37781;SDS011;23621;50.878;4.584;2023-07-02T06:51:08;36.20;;;19.27;;
37781;SDS011;23621;50.878;4.584;2023-07-02T06:53:59;34.10;;;19.13;;
37781;SDS011;23621;50.878;4.584;2023-07-02T06:56:46;31.80;;;18.08;;
37781;SDS011;23621;50.878;4.584;2023-07-02T06:59:33;32.58;;;16.55;;
37781;SDS011;23621;50.878;4.584;2023-07-02T07:02:20;31.80;;;16.90;;
37781;SDS011;23621;50.878;4.584;2023-07-02T07:05:08;26.58;;;15.70;;
37781;SDS011;23621;50.878;4.584;2023-07-02T07:07:56;28.08;;;15.15;;
37781;SDS011;23621;50.878;4.584;2023-07-02T07:10:44;29.85;;;14.77;;
37781;SDS011;23621;50.878;4.584;2023-07-02T07:13:32;25.23;;;14.07;;
37781;SDS011;23621;50.878;4.584;2023-07-02T07:16:19;21.40;;;12.75;;
37781;SDS011;23621;50.878;4.584;2023-07-02T07:19:06;25.45;;;13.50;;
37781;SDS011;23621;50.878;4.584;2023-07-02T07:21:54;27.48;;;14.15;;
37781;SDS011;23621;50.878;4.584;2023-07-02T07:24:41;25.50;;;13.52;;
37781;SDS011;23621;50.878;4.584;2023-07-02T07:27:28;27.45;;;13.50;;
37781;SDS011;23621;50.878;4.584;2023-07-02T07:30:15;25.38;;;14.20;;
37781;SDS011;23621;50.878;4.584;2023-07-02T07:33:09;25.25;;;13.27;;
37781;SDS011;23621;50.878;4.584;2023-07-02T07:35:56;21.52;;;12.50;;
37781;SDS011;23621;50.878;4.584;2023-07-02T07:38:44;22.27;;;12.18;;
37781;SDS011;23621;50.878;4.584;2023-07-02T07:41:31;19.40;;;11.02;;
37781;SDS011;23621;50.878;4.584;2023-07-02T07:44:19;21.77;;;10.07;;
37781;SDS011;23621;50.878;4.584;2023-07-02T07:47:06;15.18;;;9.38;;
37781;SDS011;23621;50.878;4.584;2023-07-02T07:49:53;19.60;;;10.40;;
37781;SDS011;23621;50.878;4.584;2023-07-02T07:52:42;18.77;;;9.63;;
37781;SDS011;23621;50.878;4.584;2023-07-02T07:55:30;14.70;;;9.20;;
37781;SDS011;23621;50.878;4.584;2023-07-02T07:58:18;14.93;;;8.70;;
37781;SDS011;23621;50.878;4.584;2023-07-02T08:01:05;16.73;;;9.32;;
37781;SDS011;23621;50.878;4.584;2023-07-02T08:03:52;13.95;;;8.18;;
37781;SDS011;23621;50.878;4.584;2023-07-02T08:06:39;13.80;;;8.13;;
37781;SDS011;23621;50.878;4.584;2023-07-02T08:09:29;13.73;;;8.25;;
37781;SDS011;23621;50.878;4.584;2023-07-02T08:12:16;13.88;;;8.15;;
37781;SDS011;23621;50.878;4.584;2023-07-02T08:15:04;13.32;;;8.27;;
37781;SDS011;23621;50.878;4.584;2023-07-02T08:17:51;11.95;;;7.70;;
37781;SDS011;23621;50.878;4.584;2023-07-02T08:20:41;14.48;;;7.90;;
37781;SDS011;23621;50.878;4.584;2023-07-02T08:23:28;12.35;;;7.68;;
37781;SDS011;23621;50.878;4.584;2023-07-02T08:26:15;14.23;;;8.15;;
37781;SDS011;23621;50.878;4.584;2023-07-02T08:29:03;12.43;;;7.97;;
37781;SDS011;23621;50.878;4.584;2023-07-02T08:31:50;15.02;;;8.10;;
37781;SDS011;23621;50.878;4.584;2023-07-02T08:34:37;13.68;;;8.70;;
37781;SDS011;23621;50.878;4.584;2023-07-02T08:37:24;16.60;;;8.63;;
37781;SDS011;23621;50.878;4.584;2023-07-02T08:40:15;13.75;;;7.40;;
37781;SDS011;23621;50.878;4.584;2023-07-02T08:43:04;15.77;;;9.10;;
37781;SDS011;23621;50.878;4.584;2023-07-02T08:45:51;17.25;;;9.80;;
37781;SDS011;23621;50.878;4.584;2023-07-02T08:48:40;17.23;;;9.38;;
37781;SDS011;23621;50.878;4.584;2023-07-02T08:51:27;16.92;;;9.35;;
37781;SDS011;23621;50.878;4.584;2023-07-02T08:54:14;16.20;;;9.25;;
37781;SDS011;23621;50.878;4.584;2023-07-02T08:57:04;15.63;;;8.90;;
37781;SDS011;23621;50.878;4.584;2023-07-02T08:59:52;16.30;;;9.63;;
37781;SDS011;23621;50.878;4.584;2023-07-02T09:02:39;17.70;;;9.77;;
37781;SDS011;23621;50.878;4.584;2023-07-02T09:05:26;16.10;;;9.73;;
37781;SDS011;23621;50.878;4.584;2023-07-02T09:08:22;19.10;;;9.75;;
37781;SDS011;23621;50.878;4.584;2023-07-02T09:11:10;17.20;;;9.38;;
37781;SDS011;23621;50.878;4.584;2023-07-02T09:13:59;18.55;;;10.95;;
37781;SDS011;23621;50.878;4.584;2023-07-02T09:16:46;16.45;;;9.50;;
37781;SDS011;23621;50.878;4.584;2023-07-02T09:19:34;17.42;;;10.30;;
37781;SDS011;23621;50.878;4.584;2023-07-02T09:22:22;16.20;;;10.07;;
37781;SDS011;23621;50.878;4.584;2023-07-02T09:25:10;20.48;;;10.75;;
37781;SDS011;23621;50.878;4.584;2023-07-02T09:27:58;21.63;;;11.20;;
37781;SDS011;23621;50.878;4.584;2023-07-02T09:30:55;18.95;;;11.27;;
37781;SDS011;23621;50.878;4.584;2023-07-02T09:33:44;20.55;;;10.73;;
37781;SDS011;23621;50.878;4.584;2023-07-02T09:36:31;20.83;;;11.63;;
37781;SDS011;23621;50.878;4.584;2023-07-02T09:39:20;18.38;;;11.07;;
37781;SDS011;23621;50.878;4.584;2023-07-02T09:42:11;17.27;;;10.75;;
37781;SDS011;23621;50.878;4.584;2023-07-02T09:44:59;18.05;;;10.93;;
37781;SDS011;23621;50.878;4.584;2023-07-02T09:47:49;19.20;;;10.68;;
37781;SDS011;23621;50.878;4.584;2023-07-02T09:50:43;18.80;;;10.77;;
37781;SDS011;23621;50.878;4.584;2023-07-02T09:53:32;20.45;;;11.15;;
37781;SDS011;23621;50.878;4.584;2023-07-02T09:56:19;20.13;;;11.02;;
37781;SDS011;23621;50.878;4.584;2023-07-02T09:59:08;20.25;;;10.65;;
37781;SDS011;23621;50.878;4.584;2023-07-02T10:01:55;20.25;;;11.73;;
37781;SDS011;23621;50.878;4.584;2023-07-02T10:04:44;19.10;;;11.07;;
37781;SDS011;23621;50.878;4.584;2023-07-02T10:07:37;23.27;;;10.98;;
37781;SDS011;23621;50.878;4.584;2023-07-02T10:10:30;20.27;;;11.80;;
37781;SDS011;23621;50.878;4.584;2023-07-02T10:13:27;18.35;;;10.60;;
37781;SDS011;23621;50.878;4.584;2023-07-02T10:16:15;19.70;;;11.43;;
37781;SDS011;23621;50.878;4.584;2023-07-02T10:19:11;18.90;;;10.73;;
37781;SDS011;23621;50.878;4.584;2023-07-02T10:22:02;18.83;;;10.52;;
37781;SDS011;23621;50.878;4.584;2023-07-02T10:24:51;21.23;;;10.65;;
37781;SDS011;23621;50.878;4.584;2023-07-02T10:27:40;19.65;;;10.27;;
37781;SDS011;23621;50.878;4.584;2023-07-02T10:30:35;18.60;;;10.60;;
37781;SDS011;23621;50.878;4.584;2023-07-02T10:33:25;19.95;;;11.40;;
37781;SDS011;23621;50.878;4.584;2023-07-02T10:36:19;19.33;;;10.65;;
37781;SDS011;23621;50.878;4.584;2023-07-02T10:39:09;17.90;;;10.02;;
37781;SDS011;23621;50.878;4.584;2023-07-02T10:42:09;24.42;;;10.40;;
37781;SDS011;23621;50.878;4.584;2023-07-02T10:44:57;19.35;;;10.25;;
37781;SDS011;23621;50.878;4.584;2023-07-02T10:47:44;18.45;;;10.40;;
37781;SDS011;23621;50.878;4.584;2023-07-02T10:50:32;20.45;;;10.38;;
37781;SDS011;23621;50.878;4.584;2023-07-02T10:53:20;20.10;;;9.95;;
37781;SDS011;23621;50.878;4.584;2023-07-02T10:56:08;18.35;;;9.75;;
37781;SDS011;23621;50.878;4.584;2023-07-02T10:59:02;15.57;;;10.00;;
37781;SDS011;23621;50.878;4.584;2023-07-02T11:01:50;15.10;;;9.82;;
37781;SDS011;23621;50.878;4.584;2023-07-02T11:04:37;20.02;;;10.45;;
37781;SDS011;23621;50.878;4.584;2023-07-02T11:07:25;18.65;;;10.10;;
37781;SDS011;23621;50.878;4.584;2023-07-02T11:10:18;18.67;;;11.07;;
37781;SDS011;23621;50.878;4.584;2023-07-02T11:13:16;21.83;;;10.73;;
37781;SDS011;23621;50.878;4.584;2023-07-02T11:16:05;17.05;;;9.88;;
37781;SDS011;23621;50.878;4.584;2023-07-02T11:19:08;17.67;;;10.32;;
37781;SDS011;23621;50.878;4.584;2023-07-02T11:21:56;21.05;;;10.48;;
37781;SDS011;23621;50.878;4.584;2023-07-02T11:24:44;17.02;;;10.18;;
37781;SDS011;23621;50.878;4.584;2023-07-02T11:27:32;19.35;;;11.10;;
37781;SDS011;23621;50.878;4.584;2023-07-02T11:30:19;20.33;;;10.90;;
37781;SDS011;23621;50.878;4.584;2023-07-02T11:33:06;14.93;;;9.43;;
37781;SDS011;23621;50.878;4.584;2023-07-02T11:35:53;16.52;;;10.18;;
37781;SDS011;23621;50.878;4.584;2023-07-02T11:38:41;17.13;;;10.07;;
37781;SDS011;23621;50.878;4.584;2023-07-02T11:41:36;17.63;;;10.27;;
37781;SDS011;23621;50.878;4.584;2023-07-02T11:44:27;17.35;;;9.55;;
37781;SDS011;23621;50.878;4.584;2023-07-02T11:47:14;20.85;;;10.35;;
37781;SDS011;23621;50.878;4.584;2023-07-02T11:50:01;14.93;;;9.77;;
37781;SDS011;23621;50.878;4.584;2023-07-02T11:53:08;17.45;;;9.30;;
37781;SDS011;23621;50.878;4.584;2023-07-02T11:55:56;16.10;;;9.55;;
37781;SDS011;23621;50.878;4.584;2023-07-02T11:58:43;13.85;;;8.70;;
37781;SDS011;23621;50.878;4.584;2023-07-02T12:01:30;17.67;;;9.20;;
37781;SDS011;23621;50.878;4.584;2023-07-02T12:04:18;16.27;;;9.38;;
37781;SDS011;23621;50.878;4.584;2023-07-02T12:07:05;15.48;;;9.38;;
37781;SDS011;23621;50.878;4.584;2023-07-02T12:09:52;15.93;;;9.57;;
37781;SDS011;23621;50.878;4.584;2023-07-02T12:12:40;16.27;;;9.55;;
37781;SDS011;23621;50.878;4.584;2023-07-02T12:15:27;16.52;;;8.43;;
37781;SDS011;23621;50.878;4.584;2023-07-02T12:18:14;17.10;;;9.32;;
37781;SDS011;23621;50.878;4.584;2023-07-02T12:21:02;18.15;;;9.57;;
37781;SDS011;23621;50.878;4.584;2023-07-02T12:23:49;17.65;;;9.48;;
37781;SDS011;23621;50.878;4.584;2023-07-02T12:26:36;15.85;;;9.40;;
37781;SDS011;23621;50.878;4.584;2023-07-02T12:29:24;14.98;;;9.43;;
37781;SDS011;23621;50.878;4.584;2023-07-02T12:32:11;17.38;;;9.65;;
37781;SDS011;23621;50.878;4.584;2023-07-02T12:34:59;17.38;;;9.60;;
37781;SDS011;23621;50.878;4.584;2023-07-02T12:37:48;16.55;;;8.82;;
37781;SDS011;23621;50.878;4.584;2023-07-02T12:40:37;16.27;;;9.00;;
37781;SDS011;23621;50.878;4.584;2023-07-02T12:43:24;16.70;;;9.55;;
37781;SDS011;23621;50.878;4.584;2023-07-02T12:46:11;13.57;;;9.00;;
37781;SDS011;23621;50.878;4.584;2023-07-02T12:48:59;14.95;;;9.30;;
37781;SDS011;23621;50.878;4.584;2023-07-02T12:51:46;13.25;;;7.72;;
37781;SDS011;23621;50.878;4.584;2023-07-02T12:54:33;16.63;;;9.48;;
37781;SDS011;23621;50.878;4.584;2023-07-02T12:57:20;19.67;;;10.00;;
37781;SDS011;23621;50.878;4.584;2023-07-02T13:00:08;17.50;;;9.50;;
37781;SDS011;23621;50.878;4.584;2023-07-02T13:02:56;16.38;;;9.57;;
37781;SDS011;23621;50.878;4.584;2023-07-02T13:05:50;15.82;;;9.20;;
37781;SDS011;23621;50.878;4.584;2023-07-02T13:08:38;16.95;;;10.25;;
37781;SDS011;23621;50.878;4.584;2023-07-02T13:11:25;16.60;;;9.13;;
37781;SDS011;23621;50.878;4.584;2023-07-02T13:14:12;17.67;;;8.45;;
37781;SDS011;23621;50.878;4.584;2023-07-02T13:17:00;13.75;;;8.60;;
37781;SDS011;23621;50.878;4.584;2023-07-02T13:19:49;13.60;;;8.55;;
37781;SDS011;23621;50.878;4.584;2023-07-02T13:22:36;16.10;;;8.85;;
37781;SDS011;23621;50.878;4.584;2023-07-02T13:25:24;17.90;;;8.88;;
37781;SDS011;23621;50.878;4.584;2023-07-02T13:28:11;14.93;;;8.20;;
37781;SDS011;23621;50.878;4.584;2023-07-02T13:30:59;15.30;;;8.45;;
37781;SDS011;23621;50.878;4.584;2023-07-02T13:33:46;16.25;;;8.10;;
37781;SDS011;23621;50.878;4.584;2023-07-02T13:36:33;13.05;;;7.93;;
37781;SDS011;23621;50.878;4.584;2023-07-02T13:39:20;14.07;;;8.18;;
37781;SDS011;23621;50.878;4.584;2023-07-02T13:42:08;15.40;;;8.25;;
37781;SDS011;23621;50.878;4.584;2023-07-02T13:44:55;13.70;;;7.93;;
37781;SDS011;23621;50.878;4.584;2023-07-02T13:47:42;11.27;;;7.88;;
37781;SDS011;23621;50.878;4.584;2023-07-02T13:50:29;13.82;;;8.55;;
37781;SDS011;23621;50.878;4.584;2023-07-02T13:53:16;13.70;;;7.20;;
37781;SDS011;23621;50.878;4.584;2023-07-02T13:56:04;13.82;;;8.07;;
37781;SDS011;23621;50.878;4.584;2023-07-02T14:01:44;15.52;;;7.82;;
37781;SDS011;23621;50.878;4.584;2023-07-02T14:04:32;13.32;;;7.68;;
37781;SDS011;23621;50.878;4.584;2023-07-02T14:07:20;12.05;;;7.72;;
37781;SDS011;23621;50.878;4.584;2023-07-02T14:10:07;13.18;;;7.95;;
37781;SDS011;23621;50.878;4.584;2023-07-02T14:12:55;12.88;;;7.53;;
37781;SDS011;23621;50.878;4.584;2023-07-02T14:15:42;16.30;;;7.65;;
37781;SDS011;23621;50.878;4.584;2023-07-02T14:18:30;13.75;;;7.50;;
37781;SDS011;23621;50.878;4.584;2023-07-02T14:21:18;14.15;;;7.80;;
37781;SDS011;23621;50.878;4.584;2023-07-02T14:24:06;14.50;;;7.78;;
37781;SDS011;23621;50.878;4.584;2023-07-02T14:26:54;12.30;;;7.60;;
37781;SDS011;23621;50.878;4.584;2023-07-02T14:29:41;14.98;;;8.20;;
37781;SDS011;23621;50.878;4.584;2023-07-02T14:32:28;13.55;;;7.75;;
37781;SDS011;23621;50.878;4.584;2023-07-02T14:35:15;14.07;;;7.68;;
37781;SDS011;23621;50.878;4.584;2023-07-02T14:38:02;14.02;;;7.95;;
37781;SDS011;23621;50.878;4.584;2023-07-02T14:40:50;13.25;;;7.65;;
37781;SDS011;23621;50.878;4.584;2023-07-02T14:43:37;13.88;;;7.60;;
37781;SDS011;23621;50.878;4.584;2023-07-02T14:46:24;13.88;;;7.85;;
37781;SDS011;23621;50.878;4.584;2023-07-02T14:49:11;12.45;;;8.30;;
37781;SDS011;23621;50.878;4.584;2023-07-02T14:51:59;13.43;;;7.65;;
37781;SDS011;23621;50.878;4.584;2023-07-02T14:54:46;14.57;;;7.45;;
37781;SDS011;23621;50.878;4.584;2023-07-02T14:57:33;12.02;;;7.60;;
37781;SDS011;23621;50.878;4.584;2023-07-02T15:00:20;13.60;;;7.85;;
37781;SDS011;23621;50.878;4.584;2023-07-02T15:03:08;13.13;;;7.70;;
37781;SDS011;23621;50.878;4.584;2023-07-02T15:06:10;13.18;;;8.45;;
37781;SDS011;23621;50.878;4.584;2023-07-02T15:08:59;15.77;;;8.10;;
37781;SDS011;23621;50.878;4.584;2023-07-02T15:11:46;12.18;;;8.00;;
37781;SDS011;23621;50.878;4.584;2023-07-02T15:14:33;12.60;;;7.57;;
37781;SDS011;23621;50.878;4.584;2023-07-02T15:17:20;11.40;;;7.47;;
37781;SDS011;23621;50.878;4.584;2023-07-02T15:20:08;17.77;;;8.23;;
37781;SDS011;23621;50.878;4.584;2023-07-02T15:22:55;13.13;;;7.10;;
37781;SDS011;23621;50.878;4.584;2023-07-02T15:25:42;13.93;;;7.15;;
37781;SDS011;23621;50.878;4.584;2023-07-02T15:28:30;13.43;;;6.80;;
37781;SDS011;23621;50.878;4.584;2023-07-02T15:31:17;12.98;;;7.72;;
37781;SDS011;23621;50.878;4.584;2023-07-02T15:34:07;13.40;;;7.40;;
37781;SDS011;23621;50.878;4.584;2023-07-02T15:36:55;12.90;;;7.45;;
37781;SDS011;23621;50.878;4.584;2023-07-02T15:39:42;14.02;;;7.15;;
37781;SDS011;23621;50.878;4.584;2023-07-02T15:42:29;12.27;;;7.28;;
37781;SDS011;23621;50.878;4.584;2023-07-02T15:45:18;15.45;;;7.05;;
37781;SDS011;23621;50.878;4.584;2023-07-02T15:48:05;13.65;;;7.57;;
37781;SDS011;23621;50.878;4.584;2023-07-02T15:50:53;13.25;;;7.20;;
37781;SDS011;23621;50.878;4.584;2023-07-02T15:53:40;14.07;;;7.35;;
37781;SDS011;23621;50.878;4.584;2023-07-02T15:56:29;14.38;;;7.20;;
37781;SDS011;23621;50.878;4.584;2023-07-02T15:59:18;15.43;;;7.25;;
37781;SDS011;23621;50.878;4.584;2023-07-02T16:02:06;14.10;;;7.32;;
37781;SDS011;23621;50.878;4.584;2023-07-02T16:04:53;12.80;;;7.22;;
37781;SDS011;23621;50.878;4.584;2023-07-02T16:07:41;11.68;;;7.28;;
37781;SDS011;23621;50.878;4.584;2023-07-02T16:10:28;12.93;;;7.72;;
37781;SDS011;23621;50.878;4.584;2023-07-02T16:13:16;14.18;;;7.20;;
37781;SDS011;23621;50.878;4.584;2023-07-02T16:16:03;10.68;;;7.10;;
37781;SDS011;23621;50.878;4.584;2023-07-02T16:18:51;13.15;;;7.22;;
37781;SDS011;23621;50.878;4.584;2023-07-02T16:21:38;11.05;;;6.90;;
37781;SDS011;23621;50.878;4.584;2023-07-02T16:24:28;11.75;;;6.78;;
37781;SDS011;23621;50.878;4.584;2023-07-02T16:27:18;13.05;;;6.68;;
37781;SDS011;23621;50.878;4.584;2023-07-02T16:30:06;14.85;;;6.85;;